createdAt,value
2023-11-23T00:04:31.197Z,-2.3
2023-11-23T00:09:38.553Z,-2.3
2023-11-23T00:14:45.903Z,-2.5
2023-11-23T00:19:53.235Z,-2.6
2023-11-23T00:25:00.616Z,-2.5
2023-11-23T00:30:09.036Z,-2.7
2023-11-23T00:35:15.326Z,-2.7
2023-11-23T00:40:22.692Z,-2.7
2023-11-23T00:45:30.006Z,-2.6
2023-11-23T00:50:37.439Z,-2.6
2023-11-23T00:55:44.749Z,-2.6
2023-11-23T01:00:52.144Z,-2.6
2023-11-23T01:05:59.465Z,-2.5
2023-11-23T01:11:06.809Z,-2.5
2023-11-23T01:16:14.186Z,-2.7
2023-11-23T01:23:33.232Z,-2.7
2023-11-23T01:28:40.610Z,-2.7
2023-11-23T01:33:48.050Z,-2.6
2023-11-23T01:38:55.354Z,-2.6
2023-11-23T01:44:02.668Z,-2.4
2023-11-23T01:49:10.040Z,-2.5
2023-11-23T01:54:17.406Z,-2.6
2023-11-23T01:59:24.748Z,-2.4
2023-11-23T02:04:32.160Z,-2.5
2023-11-23T02:09:39.429Z,-2.4
2023-11-23T02:14:46.858Z,-2.4
2023-11-23T02:19:54.168Z,-2.4
2023-11-23T02:25:01.508Z,-2.5
2023-11-23T02:30:08.946Z,-2.5
2023-11-23T02:35:16.223Z,-2.2
2023-11-23T02:40:23.588Z,-2.3
2023-11-23T02:45:30.945Z,-2.3
2023-11-23T02:55:45.663Z,-2.5
2023-11-23T03:00:53.053Z,-2.5
2023-11-23T03:06:00.418Z,-2.4
2023-11-23T03:11:07.745Z,-2.5
2023-11-23T03:16:15.107Z,-2.5
2023-11-23T03:21:22.483Z,-2.5
2023-11-23T03:26:29.780Z,-2.5
2023-11-23T03:31:37.192Z,-2.3
2023-11-23T03:36:44.516Z,-2.3
2023-11-23T03:41:51.893Z,-2.3
2023-11-23T03:46:59.223Z,-2.1
2023-11-23T03:52:06.579Z,-2.2
2023-11-23T03:57:13.933Z,-2.4
2023-11-23T04:02:21.384Z,-2.4
2023-11-23T04:07:28.643Z,-2.5
2023-11-23T04:12:36.002Z,-2.4
2023-11-23T04:17:43.422Z,-2.3
2023-11-23T04:22:50.722Z,-2.4
2023-11-23T04:27:58.069Z,-2.4
2023-11-23T04:33:05.474Z,-2.3
2023-11-23T04:38:12.785Z,-2
2023-11-23T04:43:20.162Z,-2.1
2023-11-23T04:48:27.532Z,-2.2
2023-11-23T04:53:34.843Z,-2.3
2023-11-23T04:58:42.214Z,-2
2023-11-23T05:03:49.765Z,-2.1
2023-11-23T05:08:56.935Z,-2.1
2023-11-23T05:14:04.257Z,-2.2
2023-11-23T05:19:11.636Z,-2
2023-11-23T05:24:18.980Z,-1.8
2023-11-23T05:29:26.338Z,-1.7
2023-11-23T05:34:33.688Z,-1.6
2023-11-23T05:39:43.311Z,-1.8
2023-11-23T05:44:48.445Z,-1.9
2023-11-23T05:49:55.754Z,-1.6
2023-11-23T05:55:03.116Z,-1.7
2023-11-23T06:00:10.507Z,-1.6
2023-11-23T06:05:17.848Z,-1.6
2023-11-23T06:10:26.869Z,-1.8
2023-11-23T06:15:32.559Z,-1.6
2023-11-23T06:20:39.916Z,-1.7
2023-11-23T06:25:47.256Z,-1.6
2023-11-23T06:30:54.605Z,-1.5
2023-11-23T06:36:01.984Z,-1.6
2023-11-23T06:41:09.343Z,-1.4
2023-11-23T06:46:16.731Z,-1.5
2023-11-23T06:51:24.068Z,-1.6
2023-11-23T06:56:31.377Z,-1.5
2023-11-23T07:01:38.836Z,-1.5
2023-11-23T07:06:46.094Z,-1.1
2023-11-23T07:11:53.473Z,-1.3
2023-11-23T07:17:00.825Z,-1.3
2023-11-23T07:22:08.167Z,-1.4
2023-11-23T07:27:15.564Z,-1.4
2023-11-23T07:32:22.909Z,-1
2023-11-23T07:37:30.234Z,-0.6
2023-11-23T07:42:37.632Z,-0.5
2023-11-23T07:47:45.191Z,-0.2
2023-11-23T07:52:52.290Z,-0.1
2023-11-23T07:57:59.672Z,0
2023-11-23T08:03:07.056Z,0.4
2023-11-23T08:08:14.393Z,0.4
2023-11-23T08:13:21.757Z,0.7
2023-11-23T08:18:36.387Z,1
2023-11-23T08:23:36.442Z,1.1
2023-11-23T08:28:43.800Z,1.1
2023-11-23T08:33:51.235Z,1.1
2023-11-23T08:38:58.540Z,1.3
2023-11-23T08:44:05.880Z,1.6
2023-11-23T08:49:13.237Z,1.6
2023-11-23T08:54:20.638Z,1.9
2023-11-23T08:59:27.926Z,2
2023-11-23T09:04:40.386Z,2.1
2023-11-23T09:09:42.687Z,2.4
2023-11-23T09:14:50.265Z,2.6
2023-11-23T09:19:57.368Z,2.7
2023-11-23T09:25:04.709Z,2.3
2023-11-23T09:30:12.097Z,2.3
2023-11-23T09:35:19.444Z,2.1
2023-11-23T09:40:26.800Z,2.3
2023-11-23T09:45:34.171Z,2.7
2023-11-23T09:50:42.700Z,2.9
2023-11-23T09:55:48.866Z,3
2023-11-23T10:00:56.241Z,3.3
2023-11-23T10:06:03.620Z,3.4
2023-11-23T10:11:10.928Z,3.7
2023-11-23T10:16:18.326Z,3.9
2023-11-23T10:21:25.666Z,4.1
2023-11-23T10:26:33.002Z,4.4
2023-11-23T10:31:40.360Z,4.2
2023-11-23T10:36:47.714Z,4.4
2023-11-23T10:41:55.108Z,4.7
2023-11-23T10:47:02.459Z,5
2023-11-23T10:52:09.792Z,5.1
2023-11-23T10:57:17.208Z,5.1
2023-11-23T11:02:24.517Z,4.8
2023-11-23T11:07:31.861Z,4.9
2023-11-23T11:12:39.333Z,4.8
2023-11-23T11:17:46.574Z,4.8
2023-11-23T11:22:53.961Z,5.1
2023-11-23T11:28:01.279Z,4.7
2023-11-23T11:33:08.708Z,4.7
2023-11-23T11:38:16.002Z,5
2023-11-23T11:43:23.359Z,5.1
2023-11-23T11:48:30.756Z,5.3
2023-11-23T11:53:38.077Z,5.2
2023-11-23T11:58:45.415Z,4.9
2023-11-23T12:09:00.163Z,5.3
2023-11-23T12:14:07.531Z,4.9
2023-11-23T12:19:14.873Z,4.6
2023-11-23T12:24:22.278Z,4.6
2023-11-23T12:29:29.575Z,4.7
2023-11-23T12:34:36.936Z,4.6
2023-11-23T12:39:44.335Z,4.8
2023-11-23T12:44:51.700Z,4.7
2023-11-23T12:55:06.357Z,4.7
2023-11-23T13:00:13.761Z,4.7
2023-11-23T13:05:21.072Z,4.9
2023-11-23T13:10:28.443Z,5.1
2023-11-23T13:15:35.787Z,5.2
2023-11-23T13:20:44.337Z,4.9
2023-11-23T13:25:50.485Z,4.7
2023-11-23T13:30:57.889Z,4.6
2023-11-23T13:36:05.219Z,4.4
2023-11-23T13:41:12.569Z,4.2
2023-11-23T13:46:19.985Z,4.1
2023-11-23T13:51:29.482Z,3.9
2023-11-23T13:56:34.614Z,3.6
2023-11-23T14:01:42.152Z,3.6
2023-11-23T14:06:49.367Z,3.3
2023-11-23T14:11:56.726Z,3.2
2023-11-23T14:17:04.066Z,3.2
2023-11-23T14:22:11.419Z,3.3
2023-11-23T14:27:18.801Z,2.9
2023-11-23T14:32:26.223Z,2.9
2023-11-23T14:37:33.482Z,3.1
2023-11-23T14:42:44.174Z,2.9
2023-11-23T14:47:48.226Z,2.6
2023-11-23T14:52:55.568Z,2.6
2023-11-23T14:58:02.889Z,2.4
2023-11-23T15:03:10.336Z,2.4
2023-11-23T15:08:17.612Z,2.7
2023-11-23T15:13:29.645Z,2.7
2023-11-23T15:18:32.403Z,2.6
2023-11-23T15:23:39.674Z,2.5
2023-11-23T15:28:47.069Z,2.8
2023-11-23T15:33:54.417Z,2.7
2023-11-23T15:39:01.770Z,2.4
2023-11-23T15:44:09.105Z,2.2
2023-11-23T15:49:16.456Z,2.1
2023-11-23T15:54:23.836Z,1.9
2023-11-23T15:59:31.165Z,2.1
2023-11-23T16:04:38.570Z,1.8
2023-11-23T16:09:45.915Z,1.8
2023-11-23T16:14:55.044Z,2.1
2023-11-23T16:20:00.627Z,2.1
2023-11-23T16:25:07.952Z,2.2
2023-11-23T16:30:15.615Z,2.2
2023-11-23T16:35:22.689Z,2.1
2023-11-23T16:40:30.052Z,1.8
2023-11-23T16:45:37.394Z,2.2
2023-11-23T16:50:44.732Z,2.3
2023-11-23T16:55:52.095Z,2.1
2023-11-23T17:00:59.452Z,2.1
2023-11-23T17:06:06.831Z,1.8
2023-11-23T17:11:14.141Z,1.9
2023-11-23T17:16:21.516Z,2
2023-11-23T17:21:28.908Z,1.6
2023-11-23T17:26:36.207Z,1.9
2023-11-23T17:31:43.600Z,1.7
2023-11-23T17:36:50.952Z,1.7
2023-11-23T17:41:58.292Z,1.8
2023-11-23T17:47:05.647Z,2
2023-11-23T17:52:12.990Z,1.8
2023-11-23T17:57:20.404Z,1.6
2023-11-23T18:02:27.817Z,1.9
2023-11-23T18:07:35.081Z,1.6
2023-11-23T18:12:42.467Z,1.4
2023-11-23T18:17:49.803Z,1.6
2023-11-23T18:22:57.148Z,1.6
2023-11-23T18:30:16.244Z,1.6
2023-11-23T18:35:23.624Z,1.6
2023-11-23T18:40:30.918Z,1.5
2023-11-23T18:45:38.325Z,1.5
2023-11-23T18:50:45.684Z,1.7
2023-11-23T18:55:52.992Z,1.6
2023-11-23T19:01:00.567Z,1.8
2023-11-23T19:06:07.744Z,1.7
2023-11-23T19:11:15.248Z,1.6
2023-11-23T19:16:22.465Z,1.7
2023-11-23T19:21:29.799Z,1.5
2023-11-23T19:26:37.133Z,1.3
2023-11-23T19:31:44.522Z,1.6
2023-11-23T19:36:51.858Z,1.7
2023-11-23T19:41:59.199Z,1.7
2023-11-23T19:47:06.595Z,1.5
2023-11-23T19:52:13.951Z,1.6
2023-11-23T19:57:21.297Z,1.7
2023-11-23T20:02:28.720Z,1.8
2023-11-23T20:12:43.400Z,2
2023-11-23T20:17:50.782Z,1.9
2023-11-23T20:22:58.060Z,2.1
2023-11-23T20:28:05.425Z,1.9
2023-11-23T20:33:13.462Z,2.1
2023-11-23T20:38:20.133Z,2
2023-11-23T20:43:30.092Z,2
2023-11-23T20:48:34.875Z,2.2
2023-11-23T20:53:42.208Z,2.3
2023-11-23T20:58:49.624Z,2.3
2023-11-23T21:03:57.025Z,2.5
2023-11-23T21:09:04.258Z,2.4
2023-11-23T21:14:11.643Z,2.4
2023-11-23T21:19:19.061Z,2.4
2023-11-23T21:24:26.370Z,2.3
2023-11-23T21:29:33.739Z,2.6
2023-11-23T21:34:41.049Z,2.7
2023-11-23T21:39:48.483Z,2.5
2023-11-23T21:44:55.750Z,2.1
2023-11-23T21:50:03.129Z,2.3
2023-11-23T21:55:10.516Z,2.4
2023-11-23T22:00:17.857Z,2.4
2023-11-23T22:05:25.184Z,2.5
2023-11-23T22:10:32.572Z,2.5
2023-11-23T22:15:39.935Z,2.6
2023-11-23T22:20:47.279Z,2.8
2023-11-23T22:25:54.623Z,2.6
2023-11-23T22:31:02.102Z,2.7
2023-11-23T22:36:09.322Z,3
2023-11-23T22:41:16.694Z,2.8
2023-11-23T22:46:24.049Z,2.6
2023-11-23T22:51:31.394Z,2.6
2023-11-23T22:56:38.761Z,2.6
2023-11-23T23:01:46.213Z,2.3
2023-11-23T23:06:53.465Z,2.4
2023-11-23T23:12:00.809Z,2.4
2023-11-23T23:17:08.181Z,2.7
2023-11-23T23:22:20.411Z,2.8
2023-11-23T23:27:22.931Z,2.9
2023-11-23T23:32:30.271Z,3.3
2023-11-23T23:37:37.629Z,3.7
2023-11-23T23:42:44.977Z,3.2
2023-11-23T23:47:52.323Z,3.1
2023-11-23T23:52:59.675Z,3.5
2023-11-23T23:58:07.067Z,3.8
